sensor_id;sensor_type;location;lat;lon;timestamp;temperature;humidity
3275;DHT22;1649;53.672;10.064;2024-03-25T00:01:54;5.90;99.90
3275;DHT22;1649;53.672;10.064;2024-03-25T00:04:19;5.90;99.90
3275;DHT22;1649;53.672;10.064;2024-03-25T00:06:47;5.80;99.90
3275;DHT22;1649;53.672;10.064;2024-03-25T00:09:13;5.80;99.90
3275;DHT22;1649;53.672;10.064;2024-03-25T00:11:43;5.80;99.90
3275;DHT22;1649;53.672;10.064;2024-03-25T00:14:08;5.80;99.90
3275;DHT22;1649;53.672;10.064;2024-03-25T00:16:34;5.80;99.90
3275;DHT22;1649;53.672;10.064;2024-03-25T00:19:00;5.90;99.90
3275;DHT22;1649;53.672;10.064;2024-03-25T00:21:26;5.90;99.90
3275;DHT22;1649;53.672;10.064;2024-03-25T00:23:51;5.80;99.90
3275;DHT22;1649;53.672;10.064;2024-03-25T00:26:17;5.80;99.90
3275;DHT22;1649;53.672;10.064;2024-03-25T00:28:43;5.90;99.90
3275;DHT22;1649;53.672;10.064;2024-03-25T00:31:09;5.90;99.90
3275;DHT22;1649;53.672;10.064;2024-03-25T00:33:34;5.90;99.90
3275;DHT22;1649;53.672;10.064;2024-03-25T00:36:00;5.90;99.90
3275;DHT22;1649;53.672;10.064;2024-03-25T00:38:25;5.90;99.90
3275;DHT22;1649;53.672;10.064;2024-03-25T00:40:51;5.90;99.90
3275;DHT22;1649;53.672;10.064;2024-03-25T00:43:16;5.90;99.90
3275;DHT22;1649;53.672;10.064;2024-03-25T00:45:43;5.90;99.90
3275;DHT22;1649;53.672;10.064;2024-03-25T00:48:08;5.90;99.90
3275;DHT22;1649;53.672;10.064;2024-03-25T00:50:34;5.90;99.90
3275;DHT22;1649;53.672;10.064;2024-03-25T00:52:59;5.90;99.90
3275;DHT22;1649;53.672;10.064;2024-03-25T00:55:25;5.90;99.90
3275;DHT22;1649;53.672;10.064;2024-03-25T00:57:50;5.90;99.90
3275;DHT22;1649;53.672;10.064;2024-03-25T01:00:16;5.90;99.90
3275;DHT22;1649;53.672;10.064;2024-03-25T01:02:42;5.90;99.90
3275;DHT22;1649;53.672;10.064;2024-03-25T01:05:08;6.00;99.90
3275;DHT22;1649;53.672;10.064;2024-03-25T01:07:34;5.90;99.90
3275;DHT22;1649;53.672;10.064;2024-03-25T01:10:00;5.80;99.90
3275;DHT22;1649;53.672;10.064;2024-03-25T01:12:25;5.80;99.90
3275;DHT22;1649;53.672;10.064;2024-03-25T01:14:52;5.80;99.90
3275;DHT22;1649;53.672;10.064;2024-03-25T01:17:17;5.80;99.90
3275;DHT22;1649;53.672;10.064;2024-03-25T01:19:43;5.70;99.90
3275;DHT22;1649;53.672;10.064;2024-03-25T01:22:08;5.70;99.90
3275;DHT22;1649;53.672;10.064;2024-03-25T01:24:34;5.70;99.90
3275;DHT22;1649;53.672;10.064;2024-03-25T01:27:00;5.70;99.90
3275;DHT22;1649;53.672;10.064;2024-03-25T01:29:26;5.70;99.90
3275;DHT22;1649;53.672;10.064;2024-03-25T01:31:51;5.70;99.90
3275;DHT22;1649;53.672;10.064;2024-03-25T01:34:17;5.70;99.90
3275;DHT22;1649;53.672;10.064;2024-03-25T01:36:42;5.70;99.90
3275;DHT22;1649;53.672;10.064;2024-03-25T01:39:08;5.70;99.90
3275;DHT22;1649;53.672;10.064;2024-03-25T01:41:34;5.60;99.90
3275;DHT22;1649;53.672;10.064;2024-03-25T01:44:00;5.70;99.90
3275;DHT22;1649;53.672;10.064;2024-03-25T01:46:27;5.70;99.90
3275;DHT22;1649;53.672;10.064;2024-03-25T01:48:53;5.70;99.90
3275;DHT22;1649;53.672;10.064;2024-03-25T01:51:20;5.60;99.90
3275;DHT22;1649;53.672;10.064;2024-03-25T01:53:48;5.70;99.90
3275;DHT22;1649;53.672;10.064;2024-03-25T01:56:15;5.70;99.90
3275;DHT22;1649;53.672;10.064;2024-03-25T01:58:41;5.70;99.90
3275;DHT22;1649;53.672;10.064;2024-03-25T02:01:07;5.70;99.90
3275;DHT22;1649;53.672;10.064;2024-03-25T02:03:36;5.70;99.90
3275;DHT22;1649;53.672;10.064;2024-03-25T02:06:06;5.70;99.90
3275;DHT22;1649;53.672;10.064;2024-03-25T02:08:34;5.70;99.90
3275;DHT22;1649;53.672;10.064;2024-03-25T02:11:00;5.70;99.90
3275;DHT22;1649;53.672;10.064;2024-03-25T02:13:25;5.60;99.90
3275;DHT22;1649;53.672;10.064;2024-03-25T02:15:51;5.70;99.90
3275;DHT22;1649;53.672;10.064;2024-03-25T02:18:17;5.70;99.90
3275;DHT22;1649;53.672;10.064;2024-03-25T02:20:44;5.70;99.90
3275;DHT22;1649;53.672;10.064;2024-03-25T02:23:10;5.70;99.90
3275;DHT22;1649;53.672;10.064;2024-03-25T02:25:38;5.70;99.90
3275;DHT22;1649;53.672;10.064;2024-03-25T02:28:04;5.70;99.90
3275;DHT22;1649;53.672;10.064;2024-03-25T02:30:29;5.60;99.90
3275;DHT22;1649;53.672;10.064;2024-03-25T02:32:55;5.60;99.90
3275;DHT22;1649;53.672;10.064;2024-03-25T02:35:21;5.60;99.90
3275;DHT22;1649;53.672;10.064;2024-03-25T02:37:47;5.60;99.90
3275;DHT22;1649;53.672;10.064;2024-03-25T02:40:13;5.60;99.90
3275;DHT22;1649;53.672;10.064;2024-03-25T02:42:39;5.50;99.90
3275;DHT22;1649;53.672;10.064;2024-03-25T02:45:05;5.50;99.90
3275;DHT22;1649;53.672;10.064;2024-03-25T02:47:31;5.50;99.90
3275;DHT22;1649;53.672;10.064;2024-03-25T02:49:57;5.50;99.90
3275;DHT22;1649;53.672;10.064;2024-03-25T02:52:22;5.50;99.90
3275;DHT22;1649;53.672;10.064;2024-03-25T02:54:48;5.40;99.90
3275;DHT22;1649;53.672;10.064;2024-03-25T02:57:13;5.40;99.90
3275;DHT22;1649;53.672;10.064;2024-03-25T02:59:39;5.40;99.90
3275;DHT22;1649;53.672;10.064;2024-03-25T03:02:04;5.40;99.90
3275;DHT22;1649;53.672;10.064;2024-03-25T03:04:30;5.40;99.90
3275;DHT22;1649;53.672;10.064;2024-03-25T03:06:56;5.40;99.90
3275;DHT22;1649;53.672;10.064;2024-03-25T03:09:22;5.40;99.90
3275;DHT22;1649;53.672;10.064;2024-03-25T03:11:47;5.50;99.90
3275;DHT22;1649;53.672;10.064;2024-03-25T03:14:13;5.40;99.90
3275;DHT22;1649;53.672;10.064;2024-03-25T03:16:38;5.40;99.90
3275;DHT22;1649;53.672;10.064;2024-03-25T03:19:04;5.40;99.90
3275;DHT22;1649;53.672;10.064;2024-03-25T03:21:30;5.40;99.90
3275;DHT22;1649;53.672;10.064;2024-03-25T03:23:56;5.40;99.90
3275;DHT22;1649;53.672;10.064;2024-03-25T03:26:21;5.40;99.90
3275;DHT22;1649;53.672;10.064;2024-03-25T03:28:52;5.50;99.90
3275;DHT22;1649;53.672;10.064;2024-03-25T03:31:18;5.40;99.90
3275;DHT22;1649;53.672;10.064;2024-03-25T03:33:43;5.40;99.90
3275;DHT22;1649;53.672;10.064;2024-03-25T03:36:09;5.50;99.90
3275;DHT22;1649;53.672;10.064;2024-03-25T03:38:34;5.50;99.90
3275;DHT22;1649;53.672;10.064;2024-03-25T03:41:02;5.50;99.90
3275;DHT22;1649;53.672;10.064;2024-03-25T03:43:27;5.50;99.90
3275;DHT22;1649;53.672;10.064;2024-03-25T03:45:53;5.40;99.90
3275;DHT22;1649;53.672;10.064;2024-03-25T03:48:18;5.50;99.90
3275;DHT22;1649;53.672;10.064;2024-03-25T03:50:44;5.50;99.90
3275;DHT22;1649;53.672;10.064;2024-03-25T03:53:10;5.50;99.90
3275;DHT22;1649;53.672;10.064;2024-03-25T03:55:35;5.50;99.90
3275;DHT22;1649;53.672;10.064;2024-03-25T03:58:01;5.50;99.90
3275;DHT22;1649;53.672;10.064;2024-03-25T04:00:27;5.50;99.90
3275;DHT22;1649;53.672;10.064;2024-03-25T04:02:53;5.50;99.90
3275;DHT22;1649;53.672;10.064;2024-03-25T04:05:18;5.60;99.90
3275;DHT22;1649;53.672;10.064;2024-03-25T04:07:44;5.50;99.90
3275;DHT22;1649;53.672;10.064;2024-03-25T04:10:10;5.50;99.90
3275;DHT22;1649;53.672;10.064;2024-03-25T04:12:36;5.50;99.90
3275;DHT22;1649;53.672;10.064;2024-03-25T04:15:05;5.50;99.90
3275;DHT22;1649;53.672;10.064;2024-03-25T04:17:31;5.50;99.90
3275;DHT22;1649;53.672;10.064;2024-03-25T04:19:59;5.60;99.90
3275;DHT22;1649;53.672;10.064;2024-03-25T04:22:26;5.50;99.90
3275;DHT22;1649;53.672;10.064;2024-03-25T04:24:51;5.50;99.90
3275;DHT22;1649;53.672;10.064;2024-03-25T04:27:17;5.50;99.90
3275;DHT22;1649;53.672;10.064;2024-03-25T04:29:45;5.50;99.90
3275;DHT22;1649;53.672;10.064;2024-03-25T04:32:11;5.50;99.90
3275;DHT22;1649;53.672;10.064;2024-03-25T04:34:37;5.50;99.90
3275;DHT22;1649;53.672;10.064;2024-03-25T04:37:02;5.50;99.90
3275;DHT22;1649;53.672;10.064;2024-03-25T04:39:30;5.50;99.90
3275;DHT22;1649;53.672;10.064;2024-03-25T04:41:55;5.50;99.90
3275;DHT22;1649;53.672;10.064;2024-03-25T04:44:21;5.50;99.90
3275;DHT22;1649;53.672;10.064;2024-03-25T04:46:47;5.40;99.90
3275;DHT22;1649;53.672;10.064;2024-03-25T04:49:12;5.40;99.90
3275;DHT22;1649;53.672;10.064;2024-03-25T04:51:38;5.40;99.90
3275;DHT22;1649;53.672;10.064;2024-03-25T04:54:04;5.40;99.90
3275;DHT22;1649;53.672;10.064;2024-03-25T04:56:29;5.50;99.90
3275;DHT22;1649;53.672;10.064;2024-03-25T04:58:56;5.40;99.90
3275;DHT22;1649;53.672;10.064;2024-03-25T05:01:26;5.40;99.90
3275;DHT22;1649;53.672;10.064;2024-03-25T05:03:52;5.40;99.90
3275;DHT22;1649;53.672;10.064;2024-03-25T05:06:17;5.40;99.90
3275;DHT22;1649;53.672;10.064;2024-03-25T05:08:43;5.30;99.90
3275;DHT22;1649;53.672;10.064;2024-03-25T05:11:08;5.30;99.90
3275;DHT22;1649;53.672;10.064;2024-03-25T05:13:34;5.20;99.90
3275;DHT22;1649;53.672;10.064;2024-03-25T05:15:59;5.20;99.90
3275;DHT22;1649;53.672;10.064;2024-03-25T05:18:25;5.20;99.90
3275;DHT22;1649;53.672;10.064;2024-03-25T05:20:50;5.20;99.90
3275;DHT22;1649;53.672;10.064;2024-03-25T05:23:16;5.20;99.90
3275;DHT22;1649;53.672;10.064;2024-03-25T05:25:41;5.20;99.90
3275;DHT22;1649;53.672;10.064;2024-03-25T05:28:06;5.20;99.90
3275;DHT22;1649;53.672;10.064;2024-03-25T05:30:33;5.10;99.90
3275;DHT22;1649;53.672;10.064;2024-03-25T05:32:58;5.10;99.90
3275;DHT22;1649;53.672;10.064;2024-03-25T05:35:24;5.10;99.90
3275;DHT22;1649;53.672;10.064;2024-03-25T05:37:49;5.10;99.90
3275;DHT22;1649;53.672;10.064;2024-03-25T05:40:14;5.20;99.90
3275;DHT22;1649;53.672;10.064;2024-03-25T05:42:40;5.20;99.90
3275;DHT22;1649;53.672;10.064;2024-03-25T05:45:06;5.10;99.90
3275;DHT22;1649;53.672;10.064;2024-03-25T05:47:32;5.10;99.90
3275;DHT22;1649;53.672;10.064;2024-03-25T05:49:57;5.10;99.90
3275;DHT22;1649;53.672;10.064;2024-03-25T05:52:23;5.10;99.90
3275;DHT22;1649;53.672;10.064;2024-03-25T05:54:48;5.10;99.90
3275;DHT22;1649;53.672;10.064;2024-03-25T05:57:14;5.20;99.90
3275;DHT22;1649;53.672;10.064;2024-03-25T05:59:39;5.20;99.90
3275;DHT22;1649;53.672;10.064;2024-03-25T06:02:05;5.20;99.90
3275;DHT22;1649;53.672;10.064;2024-03-25T06:04:30;5.30;99.90
3275;DHT22;1649;53.672;10.064;2024-03-25T06:06:56;5.30;99.90
3275;DHT22;1649;53.672;10.064;2024-03-25T06:09:21;5.30;99.90
3275;DHT22;1649;53.672;10.064;2024-03-25T06:11:47;5.30;99.90
3275;DHT22;1649;53.672;10.064;2024-03-25T06:14:12;5.30;99.90
3275;DHT22;1649;53.672;10.064;2024-03-25T06:16:38;5.40;99.90
3275;DHT22;1649;53.672;10.064;2024-03-25T06:19:03;5.40;99.90
3275;DHT22;1649;53.672;10.064;2024-03-25T06:21:29;5.50;99.90
3275;DHT22;1649;53.672;10.064;2024-03-25T06:23:54;5.60;99.90
3275;DHT22;1649;53.672;10.064;2024-03-25T06:26:20;5.60;99.90
3275;DHT22;1649;53.672;10.064;2024-03-25T06:28:45;5.70;99.90
3275;DHT22;1649;53.672;10.064;2024-03-25T06:31:11;5.60;99.90
3275;DHT22;1649;53.672;10.064;2024-03-25T06:33:55;5.60;99.90
3275;DHT22;1649;53.672;10.064;2024-03-25T06:36:39;5.60;99.90
3275;DHT22;1649;53.672;10.064;2024-03-25T06:39:04;5.60;99.90
3275;DHT22;1649;53.672;10.064;2024-03-25T06:41:31;5.70;99.90
3275;DHT22;1649;53.672;10.064;2024-03-25T06:43:56;5.70;99.90
3275;DHT22;1649;53.672;10.064;2024-03-25T06:46:22;5.80;99.90
3275;DHT22;1649;53.672;10.064;2024-03-25T06:48:47;5.80;99.90
3275;DHT22;1649;53.672;10.064;2024-03-25T06:51:13;5.80;99.90
3275;DHT22;1649;53.672;10.064;2024-03-25T06:53:38;6.00;99.90
3275;DHT22;1649;53.672;10.064;2024-03-25T06:56:04;6.10;99.90
3275;DHT22;1649;53.672;10.064;2024-03-25T06:58:29;6.20;99.90
3275;DHT22;1649;53.672;10.064;2024-03-25T07:01:03;6.10;99.90
3275;DHT22;1649;53.672;10.064;2024-03-25T07:03:28;6.10;99.90
3275;DHT22;1649;53.672;10.064;2024-03-25T07:05:54;6.00;99.90
3275;DHT22;1649;53.672;10.064;2024-03-25T07:08:21;5.90;99.90
3275;DHT22;1649;53.672;10.064;2024-03-25T07:10:46;5.80;99.90
3275;DHT22;1649;53.672;10.064;2024-03-25T07:13:12;5.70;99.90
3275;DHT22;1649;53.672;10.064;2024-03-25T07:15:38;5.70;99.90
3275;DHT22;1649;53.672;10.064;2024-03-25T07:18:04;5.80;99.90
3275;DHT22;1649;53.672;10.064;2024-03-25T07:20:30;5.80;99.90
3275;DHT22;1649;53.672;10.064;2024-03-25T07:22:56;5.80;99.90
3275;DHT22;1649;53.672;10.064;2024-03-25T07:25:25;5.90;99.90
3275;DHT22;1649;53.672;10.064;2024-03-25T07:27:51;6.00;99.90
3275;DHT22;1649;53.672;10.064;2024-03-25T07:30:17;6.10;99.90
3275;DHT22;1649;53.672;10.064;2024-03-25T07:32:43;6.10;99.90
3275;DHT22;1649;53.672;10.064;2024-03-25T07:35:12;6.10;99.90
3275;DHT22;1649;53.672;10.064;2024-03-25T07:37:37;6.20;99.90
3275;DHT22;1649;53.672;10.064;2024-03-25T07:40:04;6.30;99.90
3275;DHT22;1649;53.672;10.064;2024-03-25T07:42:30;6.40;99.90
3275;DHT22;1649;53.672;10.064;2024-03-25T07:44:56;6.40;99.90
3275;DHT22;1649;53.672;10.064;2024-03-25T07:47:21;6.60;99.90
3275;DHT22;1649;53.672;10.064;2024-03-25T07:49:47;6.80;99.90
3275;DHT22;1649;53.672;10.064;2024-03-25T07:52:12;6.90;99.90
3275;DHT22;1649;53.672;10.064;2024-03-25T07:54:39;7.20;99.90
3275;DHT22;1649;53.672;10.064;2024-03-25T07:57:04;7.50;99.90
3275;DHT22;1649;53.672;10.064;2024-03-25T07:59:30;7.60;99.90
3275;DHT22;1649;53.672;10.064;2024-03-25T08:01:56;7.70;99.90
3275;DHT22;1649;53.672;10.064;2024-03-25T08:04:21;7.90;99.90
3275;DHT22;1649;53.672;10.064;2024-03-25T08:06:47;8.00;99.90
3275;DHT22;1649;53.672;10.064;2024-03-25T08:09:12;7.90;99.90
3275;DHT22;1649;53.672;10.064;2024-03-25T08:11:41;7.80;99.90
3275;DHT22;1649;53.672;10.064;2024-03-25T08:14:06;7.70;99.90
3275;DHT22;1649;53.672;10.064;2024-03-25T08:16:31;7.60;99.90
3275;DHT22;1649;53.672;10.064;2024-03-25T08:18:57;7.40;99.90
3275;DHT22;1649;53.672;10.064;2024-03-25T08:21:23;7.30;99.90
3275;DHT22;1649;53.672;10.064;2024-03-25T08:23:48;7.20;99.90
3275;DHT22;1649;53.672;10.064;2024-03-25T08:26:13;7.20;99.90
3275;DHT22;1649;53.672;10.064;2024-03-25T08:28:39;7.20;99.90
3275;DHT22;1649;53.672;10.064;2024-03-25T08:31:04;7.20;99.90
3275;DHT22;1649;53.672;10.064;2024-03-25T08:33:30;7.20;99.90
3275;DHT22;1649;53.672;10.064;2024-03-25T08:35:56;7.30;99.90
3275;DHT22;1649;53.672;10.064;2024-03-25T08:38:22;7.50;99.90
3275;DHT22;1649;53.672;10.064;2024-03-25T08:40:48;7.70;99.90
3275;DHT22;1649;53.672;10.064;2024-03-25T08:43:13;7.90;99.90
3275;DHT22;1649;53.672;10.064;2024-03-25T08:45:39;8.50;99.90
3275;DHT22;1649;53.672;10.064;2024-03-25T08:48:06;9.20;99.90
3275;DHT22;1649;53.672;10.064;2024-03-25T08:50:32;9.50;99.90
3275;DHT22;1649;53.672;10.064;2024-03-25T08:52:57;9.50;99.90
3275;DHT22;1649;53.672;10.064;2024-03-25T08:55:23;9.50;99.90
3275;DHT22;1649;53.672;10.064;2024-03-25T08:57:49;10.40;99.90
3275;DHT22;1649;53.672;10.064;2024-03-25T09:00:15;11.10;99.90
3275;DHT22;1649;53.672;10.064;2024-03-25T09:02:40;12.00;99.90
3275;DHT22;1649;53.672;10.064;2024-03-25T09:05:06;11.90;99.90
3275;DHT22;1649;53.672;10.064;2024-03-25T09:07:32;11.50;99.90
3275;DHT22;1649;53.672;10.064;2024-03-25T09:09:58;10.90;99.90
3275;DHT22;1649;53.672;10.064;2024-03-25T09:12:42;10.40;99.90
3275;DHT22;1649;53.672;10.064;2024-03-25T09:15:08;9.70;99.90
3275;DHT22;1649;53.672;10.064;2024-03-25T09:17:35;9.20;99.90
3275;DHT22;1649;53.672;10.064;2024-03-25T09:20:01;8.80;99.90
3275;DHT22;1649;53.672;10.064;2024-03-25T09:22:27;8.60;99.90
3275;DHT22;1649;53.672;10.064;2024-03-25T09:24:52;8.60;99.90
3275;DHT22;1649;53.672;10.064;2024-03-25T09:27:19;8.60;99.90
3275;DHT22;1649;53.672;10.064;2024-03-25T09:29:45;8.70;99.90
3275;DHT22;1649;53.672;10.064;2024-03-25T09:32:10;8.90;99.90
3275;DHT22;1649;53.672;10.064;2024-03-25T09:34:36;9.10;99.90
3275;DHT22;1649;53.672;10.064;2024-03-25T09:37:01;9.20;99.90
3275;DHT22;1649;53.672;10.064;2024-03-25T09:39:27;9.40;99.90
3275;DHT22;1649;53.672;10.064;2024-03-25T09:41:55;9.70;99.90
3275;DHT22;1649;53.672;10.064;2024-03-25T09:44:24;9.80;99.90
3275;DHT22;1649;53.672;10.064;2024-03-25T09:46:51;9.90;99.90
3275;DHT22;1649;53.672;10.064;2024-03-25T09:49:17;9.90;99.90
3275;DHT22;1649;53.672;10.064;2024-03-25T09:51:42;9.60;99.90
3275;DHT22;1649;53.672;10.064;2024-03-25T09:54:08;9.60;99.90
3275;DHT22;1649;53.672;10.064;2024-03-25T09:56:34;9.40;99.90
3275;DHT22;1649;53.672;10.064;2024-03-25T09:59:00;9.40;99.90
3275;DHT22;1649;53.672;10.064;2024-03-25T10:01:26;9.30;99.90
3275;DHT22;1649;53.672;10.064;2024-03-25T10:03:52;9.20;99.90
3275;DHT22;1649;53.672;10.064;2024-03-25T10:06:17;9.30;99.90
3275;DHT22;1649;53.672;10.064;2024-03-25T10:08:45;9.60;99.90
3275;DHT22;1649;53.672;10.064;2024-03-25T10:11:10;10.00;99.90
3275;DHT22;1649;53.672;10.064;2024-03-25T10:13:36;10.60;99.90
3275;DHT22;1649;53.672;10.064;2024-03-25T10:16:02;11.20;99.90
3275;DHT22;1649;53.672;10.064;2024-03-25T10:18:28;11.80;99.90
3275;DHT22;1649;53.672;10.064;2024-03-25T10:20:54;12.30;99.90
3275;DHT22;1649;53.672;10.064;2024-03-25T10:23:25;12.00;99.90
3275;DHT22;1649;53.672;10.064;2024-03-25T10:25:52;12.00;99.90
3275;DHT22;1649;53.672;10.064;2024-03-25T10:28:18;12.10;99.90
3275;DHT22;1649;53.672;10.064;2024-03-25T10:30:43;12.20;99.90
3275;DHT22;1649;53.672;10.064;2024-03-25T10:33:09;12.40;99.90
3275;DHT22;1649;53.672;10.064;2024-03-25T10:35:36;12.90;99.90
3275;DHT22;1649;53.672;10.064;2024-03-25T10:38:10;13.60;99.90
3275;DHT22;1649;53.672;10.064;2024-03-25T10:40:37;14.20;99.90
3275;DHT22;1649;53.672;10.064;2024-03-25T10:43:10;14.40;98.70
3275;DHT22;1649;53.672;10.064;2024-03-25T10:45:48;14.80;99.50
3275;DHT22;1649;53.672;10.064;2024-03-25T10:48:31;14.40;96.60
3275;DHT22;1649;53.672;10.064;2024-03-25T10:51:00;13.20;98.50
3275;DHT22;1649;53.672;10.064;2024-03-25T10:53:27;12.50;99.20
3275;DHT22;1649;53.672;10.064;2024-03-25T10:55:54;11.80;98.90
3275;DHT22;1649;53.672;10.064;2024-03-25T10:58:21;11.60;99.90
3275;DHT22;1649;53.672;10.064;2024-03-25T11:00:48;11.60;98.90
3275;DHT22;1649;53.672;10.064;2024-03-25T11:03:14;11.90;99.90
3275;DHT22;1649;53.672;10.064;2024-03-25T11:05:40;12.40;99.10
3275;DHT22;1649;53.672;10.064;2024-03-25T11:08:13;12.90;99.90
3275;DHT22;1649;53.672;10.064;2024-03-25T11:10:43;13.30;98.90
3275;DHT22;1649;53.672;10.064;2024-03-25T11:13:13;13.40;96.20
3275;DHT22;1649;53.672;10.064;2024-03-25T11:15:46;13.80;97.30
3275;DHT22;1649;53.672;10.064;2024-03-25T11:18:12;13.90;96.50
3275;DHT22;1649;53.672;10.064;2024-03-25T11:20:38;13.70;96.60
3275;DHT22;1649;53.672;10.064;2024-03-25T11:23:12;13.20;96.60
3275;DHT22;1649;53.672;10.064;2024-03-25T11:25:38;12.90;96.00
3275;DHT22;1649;53.672;10.064;2024-03-25T11:28:04;12.40;96.90
3275;DHT22;1649;53.672;10.064;2024-03-25T11:30:30;12.00;97.70
3275;DHT22;1649;53.672;10.064;2024-03-25T11:32:57;12.10;98.90
3275;DHT22;1649;53.672;10.064;2024-03-25T11:35:24;12.60;99.10
3275;DHT22;1649;53.672;10.064;2024-03-25T11:37:50;13.40;98.70
3275;DHT22;1649;53.672;10.064;2024-03-25T11:40:17;13.80;96.50
3275;DHT22;1649;53.672;10.064;2024-03-25T11:42:43;14.00;95.70
3275;DHT22;1649;53.672;10.064;2024-03-25T11:45:15;14.10;95.00
3275;DHT22;1649;53.672;10.064;2024-03-25T11:47:45;13.80;94.10
3275;DHT22;1649;53.672;10.064;2024-03-25T11:50:13;13.70;94.30
3275;DHT22;1649;53.672;10.064;2024-03-25T11:52:38;13.10;93.30
3275;DHT22;1649;53.672;10.064;2024-03-25T11:55:04;12.70;95.40
3275;DHT22;1649;53.672;10.064;2024-03-25T11:57:30;12.50;93.80
3275;DHT22;1649;53.672;10.064;2024-03-25T11:59:57;12.70;96.10
3275;DHT22;1649;53.672;10.064;2024-03-25T12:02:23;13.10;94.90
3275;DHT22;1649;53.672;10.064;2024-03-25T12:04:50;13.30;94.60
3275;DHT22;1649;53.672;10.064;2024-03-25T12:07:15;13.60;95.70
3275;DHT22;1649;53.672;10.064;2024-03-25T12:09:41;13.80;94.60
3275;DHT22;1649;53.672;10.064;2024-03-25T12:12:26;13.60;94.30
3275;DHT22;1649;53.672;10.064;2024-03-25T12:14:53;13.40;93.80
3275;DHT22;1649;53.672;10.064;2024-03-25T12:17:19;13.40;94.40
3275;DHT22;1649;53.672;10.064;2024-03-25T12:20:07;13.30;93.80
3275;DHT22;1649;53.672;10.064;2024-03-25T12:22:43;13.10;92.10
3275;DHT22;1649;53.672;10.064;2024-03-25T12:25:08;12.70;93.70
3275;DHT22;1649;53.672;10.064;2024-03-25T12:27:36;12.50;93.50
3275;DHT22;1649;53.672;10.064;2024-03-25T12:30:05;12.60;94.10
3275;DHT22;1649;53.672;10.064;2024-03-25T12:32:42;12.50;94.60
3275;DHT22;1649;53.672;10.064;2024-03-25T12:35:10;12.20;93.70
3275;DHT22;1649;53.672;10.064;2024-03-25T12:37:43;12.10;94.70
3275;DHT22;1649;53.672;10.064;2024-03-25T12:40:11;11.90;95.00
3275;DHT22;1649;53.672;10.064;2024-03-25T12:42:37;11.70;94.30
3275;DHT22;1649;53.672;10.064;2024-03-25T12:45:04;11.60;94.60
3275;DHT22;1649;53.672;10.064;2024-03-25T12:47:30;11.50;95.90
3275;DHT22;1649;53.672;10.064;2024-03-25T12:49:58;11.60;96.40
3275;DHT22;1649;53.672;10.064;2024-03-25T12:52:24;11.60;95.50
3275;DHT22;1649;53.672;10.064;2024-03-25T12:54:50;11.80;95.90
3275;DHT22;1649;53.672;10.064;2024-03-25T12:57:16;12.10;96.30
3275;DHT22;1649;53.672;10.064;2024-03-25T12:59:41;12.20;95.80
3275;DHT22;1649;53.672;10.064;2024-03-25T13:02:10;12.30;95.40
3275;DHT22;1649;53.672;10.064;2024-03-25T13:04:36;12.30;95.50
3275;DHT22;1649;53.672;10.064;2024-03-25T13:07:03;12.60;96.60
3275;DHT22;1649;53.672;10.064;2024-03-25T13:09:28;12.50;96.10
3275;DHT22;1649;53.672;10.064;2024-03-25T13:11:58;12.10;97.00
3275;DHT22;1649;53.672;10.064;2024-03-25T13:14:24;12.00;98.00
3275;DHT22;1649;53.672;10.064;2024-03-25T13:16:50;11.70;98.30
3275;DHT22;1649;53.672;10.064;2024-03-25T13:19:15;11.50;98.20
3275;DHT22;1649;53.672;10.064;2024-03-25T13:21:42;11.50;98.70
3275;DHT22;1649;53.672;10.064;2024-03-25T13:24:07;11.80;99.30
3275;DHT22;1649;53.672;10.064;2024-03-25T13:26:33;12.00;98.90
3275;DHT22;1649;53.672;10.064;2024-03-25T13:28:58;12.40;98.40
3275;DHT22;1649;53.672;10.064;2024-03-25T13:31:25;12.50;97.60
3275;DHT22;1649;53.672;10.064;2024-03-25T13:33:50;12.50;96.60
3275;DHT22;1649;53.672;10.064;2024-03-25T13:36:17;12.60;97.50
3275;DHT22;1649;53.672;10.064;2024-03-25T13:38:43;12.50;96.30
3275;DHT22;1649;53.672;10.064;2024-03-25T13:41:09;12.40;96.20
3275;DHT22;1649;53.672;10.064;2024-03-25T13:43:34;12.20;96.60
3275;DHT22;1649;53.672;10.064;2024-03-25T13:46:00;12.00;96.80
3275;DHT22;1649;53.672;10.064;2024-03-25T13:48:26;12.00;97.40
3275;DHT22;1649;53.672;10.064;2024-03-25T13:50:54;11.80;96.10
3275;DHT22;1649;53.672;10.064;2024-03-25T13:53:20;11.80;96.40
3275;DHT22;1649;53.672;10.064;2024-03-25T13:55:46;11.80;97.10
3275;DHT22;1649;53.672;10.064;2024-03-25T13:58:12;11.70;97.40
3275;DHT22;1649;53.672;10.064;2024-03-25T14:00:37;11.90;97.20
3275;DHT22;1649;53.672;10.064;2024-03-25T14:03:03;11.90;96.70
3275;DHT22;1649;53.672;10.064;2024-03-25T14:05:29;11.80;96.40
3275;DHT22;1649;53.672;10.064;2024-03-25T14:07:54;11.90;96.50
3275;DHT22;1649;53.672;10.064;2024-03-25T14:10:22;12.10;96.70
3275;DHT22;1649;53.672;10.064;2024-03-25T14:12:47;12.20;96.10
3275;DHT22;1649;53.672;10.064;2024-03-25T14:15:13;12.30;95.50
3275;DHT22;1649;53.672;10.064;2024-03-25T14:17:38;12.20;95.70
3275;DHT22;1649;53.672;10.064;2024-03-25T14:20:04;12.00;95.60
3275;DHT22;1649;53.672;10.064;2024-03-25T14:22:32;12.00;95.40
3275;DHT22;1649;53.672;10.064;2024-03-25T14:24:58;12.10;96.00
3275;DHT22;1649;53.672;10.064;2024-03-25T14:27:24;12.00;96.50
3275;DHT22;1649;53.672;10.064;2024-03-25T14:29:50;11.70;96.00
3275;DHT22;1649;53.672;10.064;2024-03-25T14:32:19;11.50;95.80
3275;DHT22;1649;53.672;10.064;2024-03-25T14:34:44;11.20;96.20
3275;DHT22;1649;53.672;10.064;2024-03-25T14:37:10;11.10;97.50
3275;DHT22;1649;53.672;10.064;2024-03-25T14:39:36;11.00;96.50
3275;DHT22;1649;53.672;10.064;2024-03-25T14:42:01;10.90;97.10
3275;DHT22;1649;53.672;10.064;2024-03-25T14:44:29;10.80;97.50
3275;DHT22;1649;53.672;10.064;2024-03-25T14:46:54;10.60;97.00
3275;DHT22;1649;53.672;10.064;2024-03-25T14:49:20;10.60;98.00
3275;DHT22;1649;53.672;10.064;2024-03-25T14:51:46;10.70;97.20
3275;DHT22;1649;53.672;10.064;2024-03-25T14:54:11;10.80;97.40
3275;DHT22;1649;53.672;10.064;2024-03-25T14:56:37;10.60;97.30
3275;DHT22;1649;53.672;10.064;2024-03-25T14:59:02;10.50;97.70
3275;DHT22;1649;53.672;10.064;2024-03-25T15:01:28;10.40;98.30
3275;DHT22;1649;53.672;10.064;2024-03-25T15:03:56;10.40;98.40
3275;DHT22;1649;53.672;10.064;2024-03-25T15:06:22;10.50;97.30
3275;DHT22;1649;53.672;10.064;2024-03-25T15:08:47;10.50;97.30
3275;DHT22;1649;53.672;10.064;2024-03-25T15:11:13;10.60;97.20
3275;DHT22;1649;53.672;10.064;2024-03-25T15:13:38;10.60;97.70
3275;DHT22;1649;53.672;10.064;2024-03-25T15:16:05;10.70;96.80
3275;DHT22;1649;53.672;10.064;2024-03-25T15:18:30;10.80;96.60
3275;DHT22;1649;53.672;10.064;2024-03-25T15:21:03;10.90;96.60
3275;DHT22;1649;53.672;10.064;2024-03-25T15:23:29;10.90;96.90
3275;DHT22;1649;53.672;10.064;2024-03-25T15:25:54;11.00;95.40
3275;DHT22;1649;53.672;10.064;2024-03-25T15:28:20;11.10;95.90
3275;DHT22;1649;53.672;10.064;2024-03-25T15:30:46;11.00;95.90
3275;DHT22;1649;53.672;10.064;2024-03-25T15:33:13;11.00;95.30
3275;DHT22;1649;53.672;10.064;2024-03-25T15:35:39;10.90;94.80
3275;DHT22;1649;53.672;10.064;2024-03-25T15:38:04;10.90;95.50
3275;DHT22;1649;53.672;10.064;2024-03-25T15:40:30;10.90;95.00
3275;DHT22;1649;53.672;10.064;2024-03-25T15:42:55;10.90;96.20
3275;DHT22;1649;53.672;10.064;2024-03-25T15:45:21;10.80;95.60
3275;DHT22;1649;53.672;10.064;2024-03-25T15:47:50;10.60;96.00
3275;DHT22;1649;53.672;10.064;2024-03-25T15:50:15;10.50;95.30